Flight Track Log - Related Links

Times and Time Zones

All times are in EDT time to prevent confusion due to time zone crossing. See the SWA303 flight status page for this flight to view local times or setup timezone preferences in your user account.

Time Position Orientation Groundspeed Altitude Reporting Facility
EDT Latitude Longitude Course Direction KTS MPH feet Rate Location/Type
Tue 02:16:27 PM 39.8833 -104.5833 90° East 178 205 6,900  Level Denver TRACON
Tue 02:17:27 PM 39.8833 -104.5000 90° East 245 282 8,900 1,922 Climbing Denver TRACON
Tue 02:18:10 PM 39.8739 -104.4303 100° East 269 310 10,200 2,229 Climbing Denver Center
Tue 02:19:12 PM 39.8736 -104.2933 90° East 349 402 12,800 2,710 Climbing Denver Center
Tue 02:20:14 PM 39.8728 -104.1586 90° East 373 429 15,800 2,806 Climbing Denver Center
Tue 02:21:16 PM 39.8717 -104.0028 90° East 404 465 18,600 2,661 Climbing Denver Center
Tue 02:22:18 PM 39.8733 -103.8514 89° East 419 482 21,300 2,341 Climbing Denver Center
Tue 02:23:19 PM 39.8875 -103.6881 83° East 435 501 23,400 2,049 Climbing Denver Center
Tue 02:24:21 PM 39.9075 -103.5319 80° East 452 520 25,500 1,941 Climbing Denver Center
Tue 02:25:35 PM 39.9272 -103.3514 82° East 471 542 27,800 1,809 Climbing Denver Center
Tue 02:26:37 PM 39.9456 -103.1878 82° East 476 548 29,600 1,548 Climbing Denver Center
Tue 02:27:39 PM 39.9714 -102.9625 81° East 490 564 31,000 1,258 Climbing Denver Center
Tue 02:28:41 PM 39.9917 -102.7625 82° East 497 572 32,200 1,366 Climbing Denver Center
Tue 02:29:42 PM 40.0092 -102.5928 82° East 495 570 33,800 1,561 Climbing Denver Center
Tue 02:30:44 PM 40.0306 -102.3953 82° East 494 568 35,400 1,452 Climbing Denver Center
Tue 02:31:46 PM 40.0481 -102.2247 82° East 495 570 36,800 774 Climbing Denver Center
Tue 02:32:48 PM 40.0644 -102.0572 83° East 489 563 37,000 98 Climbing Denver Center
Tue 02:33:49 PM 40.0853 -101.8642 82° East 483 556 37,000  Level Denver Center
Tue 02:34:51 PM 40.1008 -101.6986 83° East 482 555 37,000  Level Denver Center
Tue 02:35:53 PM 40.1197 -101.5047 83° East 483 556 37,000  Level Denver Center
Tue 02:36:54 PM 40.1356 -101.3397 83° East 481 554 37,000  Level Denver Center
Tue 02:37:56 PM 40.1539 -101.1464 83° East 482 555 37,000  Level Denver Center
Tue 02:38:58 PM 40.1689 -100.9814 83° East 481 554 37,000  Level Denver Center
Tue 02:39:59 PM 40.1858 -100.7892 83° East 479 551 37,000  Level Denver Center
Tue 02:41:01 PM 40.2006 -100.6236 83° East 481 554 37,000  Level Denver Center
Tue 02:42:03 PM 40.2067 -100.4325 88° East 475 547 37,000  Level Denver Center
Tue 02:43:04 PM 40.2092 -100.2656 89° East 481 554 37,000  Level Denver Center
Tue 02:44:06 PM 40.2108 -100.1006 89° East 478 550 37,000  Level Denver Center
Tue 02:45:08 PM 40.2139 -99.9083 89° East 476 548 37,000  Level Denver Center
Tue 02:46:10 PM 40.2158 -99.7194 89° East 479 551 37,000  Level Denver Center
Tue 02:47:11 PM 40.2178 -99.5478 89° East 476 548 37,000 146 Level Denver Center
Tue 02:48:13 PM 40.2197 -99.3764 89° East 474 545 37,300 677 Climbing Denver Center
Tue 02:49:15 PM 40.2206 -99.2006 90° East 484 557 38,400 829 Climbing Denver Center
Tue 02:50:16 PM 40.2208 -99.0286 90° East 478 550 39,000 293 Climbing Denver Center
Tue 02:51:18 PM 40.2222 -98.8558 89° East 476 548 39,000  Level Denver Center
Tue 02:51:37 PM 40.2219 -98.7881 90° East 476 548 39,000 300 Level Minneapolis Center
Tue 02:52:38 PM 40.2225 -98.6167 90° East 474 545 39,400 488 Climbing Minneapolis Center
Tue 02:53:40 PM 40.2228 -98.4444 90° East 475 547 40,000 290 Climbing Minneapolis Center
Tue 02:54:42 PM 40.2228 -98.2750 90° East 471 542 40,000  Level Minneapolis Center
Tue 02:55:43 PM 40.2214 -98.1025 91° East 473 544 40,000  Level Minneapolis Center
Tue 02:56:45 PM 40.2217 -97.8956 90° East 475 547 40,000  Level Minneapolis Center
Tue 02:57:46 PM 40.2203 -97.7228 91° East 477 549 40,000  Level Minneapolis Center
Tue 02:58:48 PM 40.2189 -97.5517 91° East 473 544 40,000  Level Minneapolis Center
Tue 02:59:50 PM 40.2175 -97.3836 91° East 467 537 40,000  Level Minneapolis Center
Tue 03:00:51 PM 40.2150 -97.2250 91° East 467 537 40,000  Level Minneapolis Center
Tue 03:01:53 PM 40.2131 -97.0561 91° East 466 536 40,000  Level Minneapolis Center
Tue 03:02:54 PM 40.2100 -96.8556 91° East 463 533 40,000  Level Minneapolis Center
Tue 03:03:56 PM 40.2075 -96.6872 91° East 464 534 40,000  Level Minneapolis Center
Tue 03:04:57 PM 40.2061 -96.5197 91° East 463 533 40,000  Level Minneapolis Center
Tue 03:05:59 PM 40.2025 -96.3522 92° East 463 533 40,000  Level Minneapolis Center
Tue 03:07:00 PM 40.1992 -96.1842 91° East 464 534 40,000  Level Minneapolis Center
Tue 03:08:02 PM 40.1992 -96.0186 90° East 460 529 40,000  Level Minneapolis Center
Tue 03:09:03 PM 40.1989 -95.8489 90° East 466 536 40,000  Level Minneapolis Center
Tue 03:10:04 PM 40.1975 -95.6517 90° East 458 527 40,000  Level Minneapolis Center
Tue 03:11:06 PM 40.1961 -95.4853 91° East 458 527 40,000  Level Minneapolis Center
Tue 03:12:07 PM 40.1947 -95.3211 91° East 455 524 40,000  Level Minneapolis Center
Tue 03:13:09 PM 40.1936 -95.1544 90° East 458 527 40,000  Level Minneapolis Center
Tue 03:14:10 PM 40.1908 -94.9886 91° East 458 527 40,000  Level Minneapolis Center
Tue 03:15:11 PM 40.1892 -94.8242 91° East 456 525 40,000  Level Minneapolis Center
Tue 03:16:13 PM 40.1883 -94.6567 90° East 459 528 40,000  Level Minneapolis Center
Tue 03:17:14 PM 40.1833 -94.4744 92° East 459 528 40,000  Level Minneapolis Center
Tue 03:18:16 PM 40.1814 -94.3103 91° East 456 525 40,000  Level Minneapolis Center
Tue 03:18:31 PM 40.1781 -94.2614 95° East 458 527 40,000  Level Kansas City Center
Tue 03:19:33 PM 40.1753 -94.1036 91° East 454 522 40,000  Level Kansas City Center
Tue 03:20:35 PM 40.1697 -93.9153 92° East 457 526 40,000  Level Kansas City Center
Tue 03:21:37 PM 40.1653 -93.7522 92° East 454 522 40,000  Level Kansas City Center
Tue 03:22:39 PM 40.1619 -93.5897 91° East 453 521 40,000  Level Kansas City Center
Tue 03:23:41 PM 40.1589 -93.4281 91° East 451 519 40,000  Level Kansas City Center
Tue 03:24:43 PM 40.1542 -93.2664 92° East 450 518 40,000  Level Kansas City Center
Tue 03:25:45 PM 40.1517 -93.0739 91° East 447 514 40,000  Level Kansas City Center
Tue 03:26:47 PM 40.1442 -92.9239 94° East 448 516 40,000  Level Kansas City Center
Tue 03:27:49 PM 40.1389 -92.7431 92° East 447 514 40,000  Level Kansas City Center
Tue 03:28:51 PM 40.1331 -92.5878 93° East 446 513 40,000  Level Kansas City Center
Tue 03:29:53 PM 40.1183 -92.4100 96° East 441 507 40,000  Level Kansas City Center
Tue 03:30:55 PM 40.1044 -92.2519 97° East 445 512 40,000  Level Kansas City Center
Tue 03:31:57 PM 40.0894 -92.0942 97° East 445 512 40,000  Level Kansas City Center
Tue 03:32:59 PM 40.0750 -91.9353 97° East 446 513 40,000  Level Kansas City Center
Tue 03:34:00 PM 40.0561 -91.7762 99° East  Level FlightAware Approximate
Tue 03:35:03 PM 40.0406 -91.5842 99° East 448 516 40,000  Level Kansas City Center
Tue 03:36:05 PM 40.0247 -91.4236 97° East 448 516 40,000  Level Kansas City Center
Tue 03:37:07 PM 40.0081 -91.2628 98° East 450 518 40,000  Level Kansas City Center
Tue 03:38:09 PM 39.9914 -91.1000 98° East 455 524 40,000  Level Kansas City Center
Tue 03:39:11 PM 39.9764 -90.9347 97° East 454 522 40,000  Level Kansas City Center
Tue 03:40:13 PM 39.9556 -90.7392 98° East 455 524 40,000  Level Kansas City Center
Tue 03:41:15 PM 39.9392 -90.5778 97° East 453 521 40,000  Level Kansas City Center
Tue 03:42:17 PM 39.9208 -90.4153 98° East 454 522 40,000  Level Kansas City Center
Tue 03:43:19 PM 39.9036 -90.2547 98° East 453 521 40,000  Level Kansas City Center
Tue 03:44:21 PM 39.8864 -90.0939 98° East 450 518 40,000  Level Kansas City Center
Tue 03:45:23 PM 39.8647 -89.9008 98° East 453 521 40,000  Level Kansas City Center
Tue 03:46:25 PM 39.8461 -89.7403 99° East 451 519 40,000  Level Kansas City Center
Tue 03:47:27 PM 39.8394 -89.5764 93° East 455 524 40,000  Level Kansas City Center
Tue 03:48:29 PM 39.8400 -89.4111 90° East 457 526 40,000  Level Kansas City Center
Tue 03:49:31 PM 39.8419 -89.2483 89° East 455 524 40,000  Level Kansas City Center
Tue 03:50:33 PM 39.8414 -89.0858 90° East 452 520 40,000  Level Kansas City Center
Tue 03:51:35 PM 39.8417 -88.8944 90° East 445 512 40,000  Level Kansas City Center
Tue 03:52:37 PM 39.8428 -88.7342 89° East 445 512 40,000  Level Kansas City Center
Tue 03:53:39 PM 39.8417 -88.5733 90° East 445 512 40,000  Level Kansas City Center
Tue 03:54:41 PM 39.8428 -88.4122 89° East 446 513 40,000  Level Kansas City Center
Tue 03:55:43 PM 39.8433 -88.2506 90° East 448 516 40,000  Level Kansas City Center
Tue 03:56:45 PM 39.8411 -88.0728 91° East 449 517 40,000  Level Kansas City Center
Tue 03:57:19 PM 39.8383 -87.9894 92° East 451 519 40,000  Level Indianapolis Center
Tue 03:58:21 PM 39.8372 -87.7953 90° East 457 526 40,000  Level Indianapolis Center
Tue 03:59:23 PM 39.8358 -87.6297 91° East 457 526 40,000  Level Indianapolis Center
Tue 04:00:25 PM 39.8328 -87.4636 91° East 458 527 40,000  Level Indianapolis Center
Tue 04:01:27 PM 39.8311 -87.2978 91° East 456 525 40,000  Level Indianapolis Center
Tue 04:02:30 PM 39.8292 -87.1317 91° East 456 525 40,000  Level Indianapolis Center
Tue 04:03:31 PM 39.8261 -86.9636 91° East 460 529 40,000  Level Indianapolis Center
Tue 04:04:33 PM 39.8239 -86.7983 91° East 455 524 40,000  Level Indianapolis Center
Tue 04:05:35 PM 39.8314 -86.6047 87° East 455 524 40,000  Level Indianapolis Center
Tue 04:06:38 PM 39.8419 -86.4408 85° East 451 519 40,000  Level Indianapolis Center
Tue 04:07:40 PM 39.8511 -86.2753 86° East 450 518 40,000  Level Indianapolis Center
Tue 04:08:42 PM 39.8600 -86.1047 86° East 453 521 40,000  Level Indianapolis Center
Tue 04:09:44 PM 39.8675 -85.9419 87° East 448 516 40,000  Level Indianapolis Center
Tue 04:10:46 PM 39.8756 -85.7792 86° East 447 514 40,000  Level Indianapolis Center
Tue 04:11:48 PM 39.8839 -85.6150 86° East 450 518 40,000  Level Indianapolis Center
Tue 04:12:50 PM 39.8917 -85.4511 86° East 451 519 40,000  Level Indianapolis Center
Tue 04:13:52 PM 39.8983 -85.2867 87° East 453 521 40,000  Level Indianapolis Center
Tue 04:14:54 PM 39.9072 -85.0961 86° East 450 518 40,000  Level Indianapolis Center
Tue 04:15:56 PM 39.9147 -84.9325 87° East 450 518 40,000  Level Indianapolis Center
Tue 04:16:58 PM 39.9219 -84.7719 87° East 452 520 40,000  Level Indianapolis Center
Tue 04:18:00 PM 39.9278 -84.6061 87° East 455 524 40,000  Level Indianapolis Center
Tue 04:19:02 PM 39.9344 -84.4375 87° East 461 531 40,000  Level Indianapolis Center
Tue 04:20:04 PM 39.9408 -84.2683 87° East 464 534 40,000  Level Indianapolis Center
Tue 04:21:06 PM 39.9483 -84.0697 87° East 466 536 40,000  Level Indianapolis Center
Tue 04:22:08 PM 39.9544 -83.8981 87° East 469 540 40,000  Level Indianapolis Center
Tue 04:23:10 PM 39.9603 -83.7267 87° East 468 539 40,000  Level Indianapolis Center
Tue 04:24:12 PM 39.9653 -83.5533 88° East 468 539 40,000  Level Indianapolis Center
Tue 04:25:15 PM 39.9719 -83.3789 87° East 467 537 40,000  Level Indianapolis Center
Tue 04:26:17 PM 39.9758 -83.2075 88° East 464 534 40,000  Level Indianapolis Center
Tue 04:27:19 PM 39.9797 -83.0372 88° East 463 533 40,000  Level Indianapolis Center
Tue 04:28:21 PM 39.9844 -82.8686 88° East 463 533 40,000  Level Indianapolis Center
Tue 04:29:23 PM 39.9886 -82.7014 88° East 459 528 40,000  Level Indianapolis Center
Tue 04:30:25 PM 39.9919 -82.5306 88° East 466 536 40,000  Level Indianapolis Center
Tue 04:31:27 PM 39.9958 -82.3603 88° East 466 536 40,000  Level Indianapolis Center
Tue 04:32:29 PM 39.9992 -82.1619 89° East 466 536 40,000  Level Indianapolis Center
Tue 04:33:31 PM 40.0022 -81.9922 89° East 465 535 40,000  Level Indianapolis Center
Tue 04:34:33 PM 40.0047 -81.8222 89° East 466 536 40,000  Level Indianapolis Center
Tue 04:35:35 PM 39.9878 -81.6531 97° East 467 537 40,000  Level Indianapolis Center
Tue 04:36:37 PM 39.9517 -81.4911 106° East 464 534 40,000 -242 Level Indianapolis Center
Tue 04:37:39 PM 39.9136 -81.3314 107° East 464 534 39,500 -726 Descending Indianapolis Center
Tue 04:38:41 PM 39.8764 -81.1731 107° East 459 528 38,500 -1,063 Descending Indianapolis Center
Tue 04:38:58 PM 39.8617 -81.1022 105° East 456 525 38,100 -390 Descending Cleveland Center
Tue 04:39:58 PM 39.8269 -80.9533 107° East 456 525 38,000 -50 Descending Cleveland Center
Tue 04:40:58 PM 39.7919 -80.7992 106° East 445 512 38,000 -300 Level Cleveland Center
Tue 04:41:58 PM 39.7525 -80.6478 109° East 445 512 37,400 -500 Descending Cleveland Center
Tue 04:42:58 PM 39.7169 -80.4939 107° East 445 512 37,000 -200 Descending Cleveland Center
Tue 04:43:58 PM 39.6772 -80.3431 109° East 445 512 37,000 -550 Level Cleveland Center
Tue 04:44:58 PM 39.6392 -80.1894 108° East 445 512 35,900 -1,400 Descending Cleveland Center
Tue 04:45:58 PM 39.6031 -80.0389 107° East 445 512 34,200 -1,773 Descending Cleveland Center
Tue 04:46:26 PM 39.5919 -79.9867 105° East 424 488 33,300 -2,157 Descending Washington Center
Tue 04:47:27 PM 39.5556 -79.8336 107° East 424 488 31,000 -2,331 Descending Washington Center
Tue 04:48:27 PM 39.5258 -79.6703 103° East 442 509 28,600 -2,034 Descending Washington Center
Tue 04:49:25 PM 39.4978 -79.5156 103° East 448 516 27,000 -1,311 Descending Washington Center
Tue 04:50:26 PM 39.4711 -79.3717 103° East 429 494 26,000 -885 Descending Washington Center
Tue 04:51:27 PM 39.4425 -79.2114 103° East 422 486 25,200 -1,438 Descending Washington Center
Tue 04:52:27 PM 39.4175 -79.0733 103° East 412 474 23,100 -2,050 Descending Washington Center
Tue 04:53:27 PM 39.3922 -78.9350 103° East 400 460 21,100 -2,067 Descending Washington Center
Tue 04:54:26 PM 39.3667 -78.8050 104° East 387 445 19,000 -1,966 Descending Washington Center
Tue 04:55:26 PM 39.3431 -78.6725 103° East 376 433 17,200 -2,132 Descending Washington Center
Tue 04:56:27 PM 39.3192 -78.5372 103° East 376 433 14,700 -2,168 Descending Washington Center
Tue 04:57:25 PM 39.2972 -78.4131 103° East 370 426 12,900 -1,780 Descending Washington Center
Tue 04:58:25 PM 39.2519 -78.3014 118° Southeast 356 410 11,200 -1,190 Descending Washington Center
Tue 04:59:26 PM 39.2100 -78.2194 123° Southeast 331 381 10,500 -885 Descending Washington Center
Tue 05:00:27 PM 39.1617 -78.1319 125° Southeast 314 361 9,400 -1,261 Descending Washington Center
Tue 05:01:25 PM 39.1178 -78.0475 124° Southeast 296 341 8,000 -1,220 Descending Washington Center
Tue 05:02:25 PM 39.0756 -77.9686 125° Southeast 283 326 7,000 -496 Descending Washington Center
Tue 05:03:26 PM 39.0353 -77.8925 124° Southeast 269 310 7,000 -50 Level Washington Center
Tue 05:04:26 PM 38.9931 -77.8111 124° Southeast 262 302 6,900 -500 Descending Washington Center
Tue 05:05:26 PM 38.9653 -77.7328 114° Southeast 249 287 6,000 -286 Descending Washington Center
Tue 05:07:35 PM 39.0000 -77.5833 73° East 229 264 6,000  Level Potomac TRACON
Tue 05:08:35 PM 39.0667 -77.5667 11° North 221 254 6,000  Level Potomac TRACON
Tue 05:09:36 PM 39.1333 -77.5667 360° North 212 244 6,000 -50 Level Potomac TRACON
Tue 05:10:36 PM 39.1833 -77.5833 346° North 212 244 5,900 -500 Descending Potomac TRACON
Tue 05:11:36 PM 39.2333 -77.5667 14° North 219 252 5,000 -446 Descending Potomac TRACON
Tue 05:12:37 PM 39.2500 -77.5000 72° East 188 216 5,000  Level Potomac TRACON
Tue 05:13:37 PM 39.2167 -77.4500 131° Southeast 190 219 5,000 -500 Level Potomac TRACON
Tue 05:14:37 PM 39.1667 -77.4500 180° South 200 230 4,000 -992 Descending Potomac TRACON
Tue 05:15:38 PM 39.1000 -77.4500 180° South 194 223 3,000 -992 Descending Potomac TRACON
Tue 05:16:38 PM 39.0500 -77.4500 180° South 178 205 2,000 -950 Descending Potomac TRACON
Tue 05:17:38 PM 39.0167 -77.4667 201° Southwest 147 169 1,100 -900 Descending Potomac TRACON

Login

Don't have an account? Register now (free) for customized features, flight alerts, and more!